sensor_id;sensor_type;location;lat;lon;timestamp;pressure;altitude;pressure_sealevel;temperature;humidity
29215;BME280;16252;49.816;7.964;2023-03-21T00:01:32;100259.41;;;12.85;52.83
29215;BME280;16252;49.816;7.964;2023-03-21T00:03:57;100259.28;;;12.86;52.97
29215;BME280;16252;49.816;7.964;2023-03-21T00:06:22;100198.59;;;12.51;52.73
29215;BME280;16252;49.816;7.964;2023-03-21T00:08:48;100244.66;;;12.79;52.83
29215;BME280;16252;49.816;7.964;2023-03-21T00:11:13;100252.94;;;12.87;52.77
29215;BME280;16252;49.816;7.964;2023-03-21T00:13:39;100244.25;;;12.84;52.81
29215;BME280;16252;49.816;7.964;2023-03-21T00:18:34;100254.91;;;12.85;53.06
29215;BME280;16252;49.816;7.964;2023-03-21T00:21:06;100211.25;;;12.61;53.04
29215;BME280;16252;49.816;7.964;2023-03-21T00:23:33;100210.16;;;12.63;53.02
29215;BME280;16252;49.816;7.964;2023-03-21T00:25:58;100220.66;;;12.66;52.85
29215;BME280;16252;49.816;7.964;2023-03-21T00:28:23;100209.91;;;12.66;53.03
29215;BME280;16252;49.816;7.964;2023-03-21T00:30:49;100238.06;;;12.83;52.92
29215;BME280;16252;49.816;7.964;2023-03-21T00:33:15;100177.59;;;12.45;53.27
29215;BME280;16252;49.816;7.964;2023-03-21T00:35:45;100243.41;;;12.83;53.18
29215;BME280;16252;49.816;7.964;2023-03-21T00:38:13;100232.22;;;12.78;53.37
29215;BME280;16252;49.816;7.964;2023-03-21T00:40:38;100223.19;;;12.68;53.36
29215;BME280;16252;49.816;7.964;2023-03-21T00:43:03;100226.00;;;12.77;53.34
29215;BME280;16252;49.816;7.964;2023-03-21T00:45:29;100116.09;;;12.10;53.42
29215;BME280;16252;49.816;7.964;2023-03-21T00:47:55;100233.66;;;12.82;53.32
29215;BME280;16252;49.816;7.964;2023-03-21T00:50:21;100217.94;;;12.77;53.63
29215;BME280;16252;49.816;7.964;2023-03-21T00:52:46;100222.31;;;12.78;53.60
29215;BME280;16252;49.816;7.964;2023-03-21T00:55:13;100223.66;;;12.84;53.89
29215;BME280;16252;49.816;7.964;2023-03-21T00:57:39;100105.97;;;12.13;53.70
29215;BME280;16252;49.816;7.964;2023-03-21T01:00:06;100186.25;;;12.60;54.03
29215;BME280;16252;49.816;7.964;2023-03-21T01:02:34;100203.94;;;12.74;53.84
29215;BME280;16252;49.816;7.964;2023-03-21T01:04:59;100210.97;;;12.75;54.09
29215;BME280;16252;49.816;7.964;2023-03-21T01:07:24;100168.22;;;12.51;53.81
29215;BME280;16252;49.816;7.964;2023-03-21T01:09:50;100195.13;;;12.72;53.97
29215;BME280;16252;49.816;7.964;2023-03-21T01:12:15;100151.75;;;12.44;53.88
29215;BME280;16252;49.816;7.964;2023-03-21T01:14:40;100167.34;;;12.50;53.84
29215;BME280;16252;49.816;7.964;2023-03-21T01:17:06;100191.25;;;12.65;54.17
29215;BME280;16252;49.816;7.964;2023-03-21T01:19:31;100152.50;;;12.46;54.15
29215;BME280;16252;49.816;7.964;2023-03-21T01:21:57;100173.94;;;12.57;54.36
29215;BME280;16252;49.816;7.964;2023-03-21T01:24:23;100155.56;;;12.42;54.34
29215;BME280;16252;49.816;7.964;2023-03-21T01:26:48;100181.97;;;12.57;54.37
29215;BME280;16252;49.816;7.964;2023-03-21T01:29:13;100181.13;;;12.57;54.38
29215;BME280;16252;49.816;7.964;2023-03-21T01:31:39;100147.03;;;12.36;53.98
29215;BME280;16252;49.816;7.964;2023-03-21T01:34:04;100188.34;;;12.56;54.20
29215;BME280;16252;49.816;7.964;2023-03-21T01:36:30;100164.81;;;12.38;53.87
29215;BME280;16252;49.816;7.964;2023-03-21T01:38:55;100184.94;;;12.54;54.10
29215;BME280;16252;49.816;7.964;2023-03-21T01:41:33;100197.09;;;12.70;53.98
29215;BME280;16252;49.816;7.964;2023-03-21T01:43:59;100193.19;;;12.63;53.79
29215;BME280;16252;49.816;7.964;2023-03-21T01:46:42;100134.72;;;12.34;53.96
29215;BME280;16252;49.816;7.964;2023-03-21T01:51:43;100192.09;;;12.65;54.27
29215;BME280;16252;49.816;7.964;2023-03-21T01:54:14;100166.50;;;12.50;53.98
29215;BME280;16252;49.816;7.964;2023-03-21T01:56:43;100151.19;;;12.41;54.14
29215;BME280;16252;49.816;7.964;2023-03-21T01:59:15;100180.88;;;12.60;54.48
29215;BME280;16252;49.816;7.964;2023-03-21T02:01:45;100125.56;;;12.25;54.39
29215;BME280;16252;49.816;7.964;2023-03-21T02:04:11;100164.94;;;12.47;54.12
29215;BME280;16252;49.816;7.964;2023-03-21T02:09:23;100172.25;;;12.56;54.62
29215;BME280;16252;49.816;7.964;2023-03-21T02:11:51;100149.81;;;12.35;54.47
29215;BME280;16252;49.816;7.964;2023-03-21T02:14:18;100119.88;;;12.19;54.46
29215;BME280;16252;49.816;7.964;2023-03-21T02:17:02;100150.66;;;12.47;54.42
29215;BME280;16252;49.816;7.964;2023-03-21T02:25:26;100157.59;;;12.49;54.15
29215;BME280;16252;49.816;7.964;2023-03-21T02:33:40;100148.09;;;12.45;54.36
29215;BME280;16252;49.816;7.964;2023-03-21T02:36:29;100141.75;;;12.46;54.43
29215;BME280;16252;49.816;7.964;2023-03-21T02:39:07;100141.03;;;12.44;54.63
29215;BME280;16252;49.816;7.964;2023-03-21T02:41:49;100140.19;;;12.44;54.60
29215;BME280;16252;49.816;7.964;2023-03-21T02:44:24;100139.19;;;12.45;54.67
29215;BME280;16252;49.816;7.964;2023-03-21T02:47:00;100141.88;;;12.45;54.76
29215;BME280;16252;49.816;7.964;2023-03-21T02:49:31;100136.88;;;12.40;54.62
29215;BME280;16252;49.816;7.964;2023-03-21T02:51:59;100131.66;;;12.39;54.63
29215;BME280;16252;49.816;7.964;2023-03-21T02:54:27;100084.03;;;12.08;54.59
29215;BME280;16252;49.816;7.964;2023-03-21T02:56:55;100129.56;;;12.42;55.12
29215;BME280;16252;49.816;7.964;2023-03-21T02:59:23;100093.03;;;12.19;54.85
29215;BME280;16252;49.816;7.964;2023-03-21T03:01:51;100126.88;;;12.42;54.80
29215;BME280;16252;49.816;7.964;2023-03-21T03:04:25;100105.56;;;12.29;54.76
29215;BME280;16252;49.816;7.964;2023-03-21T03:09:44;100128.19;;;12.48;54.40
29215;BME280;16252;49.816;7.964;2023-03-21T03:17:33;100111.41;;;12.46;54.11
29215;BME280;16252;49.816;7.964;2023-03-21T03:25:57;100105.69;;;12.39;54.31
29215;BME280;16252;49.816;7.964;2023-03-21T03:28:30;99994.13;;;11.70;54.20
29215;BME280;16252;49.816;7.964;2023-03-21T03:30:58;100024.44;;;11.82;54.36
29215;BME280;16252;49.816;7.964;2023-03-21T03:33:25;99999.97;;;11.64;54.54
29215;BME280;16252;49.816;7.964;2023-03-21T03:35:53;100105.31;;;12.32;54.74
29215;BME280;16252;49.816;7.964;2023-03-21T03:38:20;100104.34;;;12.33;54.47
29215;BME280;16252;49.816;7.964;2023-03-21T03:40:50;100114.69;;;12.38;54.51
29215;BME280;16252;49.816;7.964;2023-03-21T03:43:40;100086.78;;;12.29;54.47
29215;BME280;16252;49.816;7.964;2023-03-21T03:46:16;100094.25;;;12.26;54.51
29215;BME280;16252;49.816;7.964;2023-03-21T03:48:47;100062.22;;;12.13;54.67
29215;BME280;16252;49.816;7.964;2023-03-21T03:51:32;100095.81;;;12.28;54.64
29215;BME280;16252;49.816;7.964;2023-03-21T03:54:10;100105.47;;;12.31;54.74
29215;BME280;16252;49.816;7.964;2023-03-21T03:56:37;100113.50;;;12.31;54.44
29215;BME280;16252;49.816;7.964;2023-03-21T03:59:03;100108.13;;;12.31;54.69
29215;BME280;16252;49.816;7.964;2023-03-21T04:01:29;100096.19;;;12.24;54.58
29215;BME280;16252;49.816;7.964;2023-03-21T04:03:55;100121.88;;;12.38;54.46
29215;BME280;16252;49.816;7.964;2023-03-21T04:06:20;100102.88;;;12.29;54.50
29215;BME280;16252;49.816;7.964;2023-03-21T04:08:46;100122.34;;;12.43;54.53
29215;BME280;16252;49.816;7.964;2023-03-21T04:11:15;100117.59;;;12.46;54.70
29215;BME280;16252;49.816;7.964;2023-03-21T04:13:41;100097.91;;;12.25;54.63
29215;BME280;16252;49.816;7.964;2023-03-21T04:16:07;100111.28;;;12.36;54.73
29215;BME280;16252;49.816;7.964;2023-03-21T04:18:33;100127.50;;;12.46;54.75
29215;BME280;16252;49.816;7.964;2023-03-21T04:20:59;100093.00;;;12.30;54.87
29215;BME280;16252;49.816;7.964;2023-03-21T04:23:24;100080.47;;;12.19;54.80
29215;BME280;16252;49.816;7.964;2023-03-21T04:25:50;100119.44;;;12.46;54.62
29215;BME280;16252;49.816;7.964;2023-03-21T04:28:16;100090.06;;;12.33;54.71
29215;BME280;16252;49.816;7.964;2023-03-21T04:30:41;100116.38;;;12.50;54.68
29215;BME280;16252;49.816;7.964;2023-03-21T04:33:06;100096.88;;;12.37;54.65
29215;BME280;16252;49.816;7.964;2023-03-21T04:35:32;100107.97;;;12.44;54.96
29215;BME280;16252;49.816;7.964;2023-03-21T04:37:58;100096.63;;;12.40;55.24
29215;BME280;16252;49.816;7.964;2023-03-21T04:40:23;100106.41;;;12.41;55.34
29215;BME280;16252;49.816;7.964;2023-03-21T04:42:49;100102.63;;;12.44;55.21
29215;BME280;16252;49.816;7.964;2023-03-21T04:45:16;100094.47;;;12.34;55.32
29215;BME280;16252;49.816;7.964;2023-03-21T04:47:41;100091.69;;;12.24;55.26
29215;BME280;16252;49.816;7.964;2023-03-21T04:50:08;100093.63;;;12.22;55.49
29215;BME280;16252;49.816;7.964;2023-03-21T04:52:34;100057.69;;;12.02;55.58
29215;BME280;16252;49.816;7.964;2023-03-21T04:55:00;100094.47;;;12.23;55.45
29215;BME280;16252;49.816;7.964;2023-03-21T04:57:26;100099.00;;;12.22;55.71
29215;BME280;16252;49.816;7.964;2023-03-21T04:59:51;100096.69;;;12.18;55.74
29215;BME280;16252;49.816;7.964;2023-03-21T05:02:16;100114.00;;;12.25;55.85
29215;BME280;16252;49.816;7.964;2023-03-21T05:04:42;100102.53;;;12.23;55.92
29215;BME280;16252;49.816;7.964;2023-03-21T05:07:07;100082.94;;;12.11;55.88
29215;BME280;16252;49.816;7.964;2023-03-21T05:09:33;100082.22;;;12.09;56.12
29215;BME280;16252;49.816;7.964;2023-03-21T05:11:58;100083.41;;;12.05;56.07
29215;BME280;16252;49.816;7.964;2023-03-21T05:14:24;100105.59;;;12.18;56.36
29215;BME280;16252;49.816;7.964;2023-03-21T05:16:51;100094.41;;;12.13;56.02
29215;BME280;16252;49.816;7.964;2023-03-21T05:19:18;100094.41;;;12.13;56.00
29215;BME280;16252;49.816;7.964;2023-03-21T05:21:45;100056.63;;;11.93;56.00
29215;BME280;16252;49.816;7.964;2023-03-21T05:24:16;100081.84;;;12.13;56.30
29215;BME280;16252;49.816;7.964;2023-03-21T05:26:42;100094.16;;;12.16;56.23
29215;BME280;16252;49.816;7.964;2023-03-21T05:29:08;100080.38;;;12.09;55.93
29215;BME280;16252;49.816;7.964;2023-03-21T05:31:34;100064.78;;;12.03;56.03
29215;BME280;16252;49.816;7.964;2023-03-21T05:34:00;100074.53;;;12.16;56.23
29215;BME280;16252;49.816;7.964;2023-03-21T05:36:25;100079.88;;;12.16;56.19
29215;BME280;16252;49.816;7.964;2023-03-21T05:38:51;100082.56;;;12.16;56.18
29215;BME280;16252;49.816;7.964;2023-03-21T05:41:17;100075.63;;;12.13;56.26
29215;BME280;16252;49.816;7.964;2023-03-21T05:43:42;100093.38;;;12.25;56.07
29215;BME280;16252;49.816;7.964;2023-03-21T05:46:08;100074.75;;;12.12;56.12
29215;BME280;16252;49.816;7.964;2023-03-21T05:48:34;100086.84;;;12.18;56.07
29215;BME280;16252;49.816;7.964;2023-03-21T05:51:00;100095.47;;;12.22;56.11
29215;BME280;16252;49.816;7.964;2023-03-21T05:53:25;100088.41;;;12.21;55.89
29215;BME280;16252;49.816;7.964;2023-03-21T05:55:51;100087.53;;;12.20;56.04
29215;BME280;16252;49.816;7.964;2023-03-21T05:58:16;100083.03;;;12.21;55.93
29215;BME280;16252;49.816;7.964;2023-03-21T06:00:41;100088.25;;;12.22;56.05
29215;BME280;16252;49.816;7.964;2023-03-21T06:03:06;100083.03;;;12.21;55.78
29215;BME280;16252;49.816;7.964;2023-03-21T06:05:32;100048.19;;;12.09;55.84
29215;BME280;16252;49.816;7.964;2023-03-21T06:07:57;100071.31;;;12.22;56.16
29215;BME280;16252;49.816;7.964;2023-03-21T06:10:22;100077.53;;;12.22;56.04
29215;BME280;16252;49.816;7.964;2023-03-21T06:12:48;100076.16;;;12.28;56.01
29215;BME280;16252;49.816;7.964;2023-03-21T06:15:13;100081.44;;;12.29;56.24
29215;BME280;16252;49.816;7.964;2023-03-21T06:17:39;100090.69;;;12.36;56.11
29215;BME280;16252;49.816;7.964;2023-03-21T06:20:06;100099.09;;;12.43;56.08
29215;BME280;16252;49.816;7.964;2023-03-21T06:22:33;100100.31;;;12.39;55.93
29215;BME280;16252;49.816;7.964;2023-03-21T06:24:58;100102.63;;;12.44;55.91
29215;BME280;16252;49.816;7.964;2023-03-21T06:27:23;100103.56;;;12.43;55.92
29215;BME280;16252;49.816;7.964;2023-03-21T06:29:49;100097.50;;;12.41;55.36
29215;BME280;16252;49.816;7.964;2023-03-21T06:32:15;100111.97;;;12.49;55.38
29215;BME280;16252;49.816;7.964;2023-03-21T06:34:41;100097.63;;;12.39;55.11
29215;BME280;16252;49.816;7.964;2023-03-21T06:37:06;100096.63;;;12.40;54.97
29215;BME280;16252;49.816;7.964;2023-03-21T06:39:32;100093.38;;;12.36;54.89
29215;BME280;16252;49.816;7.964;2023-03-21T06:41:57;100108.47;;;12.49;54.92
29215;BME280;16252;49.816;7.964;2023-03-21T06:44:22;100105.63;;;12.50;55.17
29215;BME280;16252;49.816;7.964;2023-03-21T06:46:49;100097.84;;;12.47;54.98
29215;BME280;16252;49.816;7.964;2023-03-21T06:49:14;100114.38;;;12.64;55.14
29215;BME280;16252;49.816;7.964;2023-03-21T06:51:39;100117.19;;;12.62;55.10
29215;BME280;16252;49.816;7.964;2023-03-21T06:54:05;100113.41;;;12.65;55.12
29215;BME280;16252;49.816;7.964;2023-03-21T06:56:30;100110.59;;;12.66;55.08
29215;BME280;16252;49.816;7.964;2023-03-21T06:58:55;100085.50;;;12.56;55.26
29215;BME280;16252;49.816;7.964;2023-03-21T07:01:20;100100.44;;;12.70;54.89
29215;BME280;16252;49.816;7.964;2023-03-21T07:03:46;100105.16;;;12.77;55.11
29215;BME280;16252;49.816;7.964;2023-03-21T07:06:11;100116.72;;;12.89;54.94
29215;BME280;16252;49.816;7.964;2023-03-21T07:08:38;100120.00;;;12.93;55.16
29215;BME280;16252;49.816;7.964;2023-03-21T07:11:04;100106.44;;;12.94;55.07
29215;BME280;16252;49.816;7.964;2023-03-21T07:13:30;100105.63;;;13.04;54.42
29215;BME280;16252;49.816;7.964;2023-03-21T07:15:56;100095.03;;;13.02;54.14
29215;BME280;16252;49.816;7.964;2023-03-21T07:18:21;100094.78;;;13.05;53.90
29215;BME280;16252;49.816;7.964;2023-03-21T07:20:48;100087.28;;;13.09;53.66
29215;BME280;16252;49.816;7.964;2023-03-21T07:23:18;100087.75;;;13.14;53.38
29215;BME280;16252;49.816;7.964;2023-03-21T07:25:46;100110.25;;;13.34;53.35
29215;BME280;16252;49.816;7.964;2023-03-21T07:28:12;100116.50;;;13.34;53.02
29215;BME280;16252;49.816;7.964;2023-03-21T07:30:37;100104.03;;;13.33;53.12
29215;BME280;16252;49.816;7.964;2023-03-21T07:33:03;100104.50;;;13.38;53.08
29215;BME280;16252;49.816;7.964;2023-03-21T07:35:28;100108.25;;;13.47;53.01
29215;BME280;16252;49.816;7.964;2023-03-21T07:37:53;100088.09;;;13.41;53.01
29215;BME280;16252;49.816;7.964;2023-03-21T07:40:19;100120.47;;;13.61;53.15
29215;BME280;16252;49.816;7.964;2023-03-21T07:42:47;100118.22;;;13.66;53.02
29215;BME280;16252;49.816;7.964;2023-03-21T07:45:12;100104.91;;;13.64;52.76
29215;BME280;16252;49.816;7.964;2023-03-21T07:47:42;100097.44;;;13.68;52.70
29215;BME280;16252;49.816;7.964;2023-03-21T07:50:07;100101.81;;;13.69;52.96
29215;BME280;16252;49.816;7.964;2023-03-21T07:52:32;100107.84;;;13.82;52.65
29215;BME280;16252;49.816;7.964;2023-03-21T07:54:58;100106.72;;;13.85;52.40
29215;BME280;16252;49.816;7.964;2023-03-21T07:57:23;100080.47;;;13.77;52.54
29215;BME280;16252;49.816;7.964;2023-03-21T07:59:48;100108.00;;;13.91;51.96
29215;BME280;16252;49.816;7.964;2023-03-21T08:02:15;100110.28;;;13.95;52.35
29215;BME280;16252;49.816;7.964;2023-03-21T08:04:41;100094.56;;;13.91;51.97
29215;BME280;16252;49.816;7.964;2023-03-21T08:07:06;100107.16;;;14.00;51.84
29215;BME280;16252;49.816;7.964;2023-03-21T08:09:31;100118.38;;;14.05;51.63
29215;BME280;16252;49.816;7.964;2023-03-21T08:11:57;100076.25;;;13.84;51.93
29215;BME280;16252;49.816;7.964;2023-03-21T08:14:22;100127.75;;;14.11;51.45
29215;BME280;16252;49.816;7.964;2023-03-21T08:16:47;100109.47;;;14.04;51.67
29215;BME280;16252;49.816;7.964;2023-03-21T08:19:13;100090.59;;;13.95;51.85
29215;BME280;16252;49.816;7.964;2023-03-21T08:21:38;100123.78;;;14.15;51.96
29215;BME280;16252;49.816;7.964;2023-03-21T08:24:04;100121.81;;;14.17;51.69
29215;BME280;16252;49.816;7.964;2023-03-21T08:26:31;100103.81;;;14.07;51.72
29215;BME280;16252;49.816;7.964;2023-03-21T08:28:56;100119.25;;;14.15;51.51
29215;BME280;16252;49.816;7.964;2023-03-21T08:31:21;100122.13;;;14.23;51.42
29215;BME280;16252;49.816;7.964;2023-03-21T08:33:47;100111.06;;;14.17;51.47
29215;BME280;16252;49.816;7.964;2023-03-21T08:36:17;100079.88;;;14.04;51.34
29215;BME280;16252;49.816;7.964;2023-03-21T08:38:42;100113.47;;;14.20;51.83
29215;BME280;16252;49.816;7.964;2023-03-21T08:41:10;100120.72;;;14.29;51.06
29215;BME280;16252;49.816;7.964;2023-03-21T08:43:35;100121.41;;;14.21;51.45
29215;BME280;16252;49.816;7.964;2023-03-21T08:46:01;100121.13;;;14.24;51.22
29215;BME280;16252;49.816;7.964;2023-03-21T08:48:28;100119.16;;;14.26;51.24
29215;BME280;16252;49.816;7.964;2023-03-21T08:50:53;100107.81;;;14.23;51.17
29215;BME280;16252;49.816;7.964;2023-03-21T08:53:18;100112.06;;;14.25;51.10
29215;BME280;16252;49.816;7.964;2023-03-21T08:55:43;100109.38;;;14.25;51.33
29215;BME280;16252;49.816;7.964;2023-03-21T08:58:09;100127.97;;;14.38;51.47
29215;BME280;16252;49.816;7.964;2023-03-21T09:00:35;100146.38;;;14.43;51.39
29215;BME280;16252;49.816;7.964;2023-03-21T09:03:00;100133.22;;;14.40;51.49
29215;BME280;16252;49.816;7.964;2023-03-21T09:05:25;100094.34;;;14.23;51.69
29215;BME280;16252;49.816;7.964;2023-03-21T09:07:52;100102.16;;;14.26;52.15
29215;BME280;16252;49.816;7.964;2023-03-21T09:10:20;100127.53;;;14.43;52.62
29215;BME280;16252;49.816;7.964;2023-03-21T09:12:46;100135.06;;;14.49;52.28
29215;BME280;16252;49.816;7.964;2023-03-21T09:15:12;100120.63;;;14.50;52.50
29215;BME280;16252;49.816;7.964;2023-03-21T09:17:39;100101.19;;;14.37;52.42
29215;BME280;16252;49.816;7.964;2023-03-21T09:20:10;100118.22;;;14.47;52.60
29215;BME280;16252;49.816;7.964;2023-03-21T09:22:37;100121.94;;;14.56;52.97
29215;BME280;16252;49.816;7.964;2023-03-21T09:25:03;100090.44;;;14.37;52.71
29215;BME280;16252;49.816;7.964;2023-03-21T09:27:35;100131.44;;;14.60;53.09
29215;BME280;16252;49.816;7.964;2023-03-21T09:30:01;100103.75;;;14.48;53.03
29215;BME280;16252;49.816;7.964;2023-03-21T09:32:26;100119.66;;;14.61;52.43
29215;BME280;16252;49.816;7.964;2023-03-21T09:34:53;100091.69;;;14.42;52.71
29215;BME280;16252;49.816;7.964;2023-03-21T09:37:19;100125.63;;;14.64;53.29
29215;BME280;16252;49.816;7.964;2023-03-21T09:39:45;100074.00;;;14.40;52.91
29215;BME280;16252;49.816;7.964;2023-03-21T09:45:00;100120.09;;;14.76;53.14
29215;BME280;16252;49.816;7.964;2023-03-21T09:47:31;100122.09;;;14.73;53.03
29215;BME280;16252;49.816;7.964;2023-03-21T09:50:11;100123.38;;;14.79;52.84
29215;BME280;16252;49.816;7.964;2023-03-21T09:55:21;100128.19;;;14.76;53.68
29215;BME280;16252;49.816;7.964;2023-03-21T09:57:50;100112.88;;;14.66;53.21
29215;BME280;16252;49.816;7.964;2023-03-21T10:00:28;100134.00;;;14.81;53.07
29215;BME280;16252;49.816;7.964;2023-03-21T10:02:58;100107.50;;;14.66;53.39
29215;BME280;16252;49.816;7.964;2023-03-21T10:05:29;100122.53;;;14.79;53.73
29215;BME280;16252;49.816;7.964;2023-03-21T10:08:15;100128.19;;;14.85;53.89
29215;BME280;16252;49.816;7.964;2023-03-21T10:10:48;100111.06;;;14.77;54.28
29215;BME280;16252;49.816;7.964;2023-03-21T10:13:27;100123.53;;;14.87;53.97
29215;BME280;16252;49.816;7.964;2023-03-21T10:16:05;100117.28;;;14.87;53.64
29215;BME280;16252;49.816;7.964;2023-03-21T10:18:35;100119.84;;;14.79;53.90
29215;BME280;16252;49.816;7.964;2023-03-21T10:21:01;100089.06;;;14.62;54.37
29215;BME280;16252;49.816;7.964;2023-03-21T10:23:28;100113.03;;;14.74;54.13
29215;BME280;16252;49.816;7.964;2023-03-21T10:25:56;100108.63;;;14.73;54.57
29215;BME280;16252;49.816;7.964;2023-03-21T10:28:26;100120.53;;;14.81;54.99
29215;BME280;16252;49.816;7.964;2023-03-21T10:30:54;100103.38;;;14.72;55.10
29215;BME280;16252;49.816;7.964;2023-03-21T10:33:26;100117.72;;;14.82;54.58
29215;BME280;16252;49.816;7.964;2023-03-21T10:38:59;100103.81;;;14.87;54.32
29215;BME280;16252;49.816;7.964;2023-03-21T10:41:25;100076.44;;;14.62;54.41
29215;BME280;16252;49.816;7.964;2023-03-21T10:44:12;100090.34;;;14.87;54.19
29215;BME280;16252;49.816;7.964;2023-03-21T10:46:55;100101.56;;;14.92;54.28
29215;BME280;16252;49.816;7.964;2023-03-21T10:49:21;100094.03;;;14.86;54.34
29215;BME280;16252;49.816;7.964;2023-03-21T10:51:52;100103.22;;;14.93;54.29
29215;BME280;16252;49.816;7.964;2023-03-21T10:54:20;100064.97;;;14.70;54.01
29215;BME280;16252;49.816;7.964;2023-03-21T10:57:07;100098.97;;;15.00;53.81
29215;BME280;16252;49.816;7.964;2023-03-21T10:59:45;100077.59;;;14.89;53.96
29215;BME280;16252;49.816;7.964;2023-03-21T11:02:19;100094.44;;;15.01;53.74
29215;BME280;16252;49.816;7.964;2023-03-21T11:04:48;100088.06;;;14.92;53.69
29215;BME280;16252;49.816;7.964;2023-03-21T11:07:14;100080.13;;;14.90;53.64
29215;BME280;16252;49.816;7.964;2023-03-21T11:09:53;100053.34;;;14.89;53.19
29215;BME280;16252;49.816;7.964;2023-03-21T11:12:32;100091.44;;;15.13;53.56
29215;BME280;16252;49.816;7.964;2023-03-21T11:15:39;100092.56;;;15.21;53.58
29215;BME280;16252;49.816;7.964;2023-03-21T11:18:18;100068.91;;;15.14;53.38
29215;BME280;16252;49.816;7.964;2023-03-21T11:21:01;100066.16;;;15.24;53.39
29215;BME280;16252;49.816;7.964;2023-03-21T11:23:30;100060.34;;;15.19;53.31
29215;BME280;16252;49.816;7.964;2023-03-21T11:25:57;100085.16;;;15.42;54.10
29215;BME280;16252;49.816;7.964;2023-03-21T11:28:25;100034.41;;;15.18;54.15
29215;BME280;16252;49.816;7.964;2023-03-21T11:30:58;100088.50;;;15.54;53.33
29215;BME280;16252;49.816;7.964;2023-03-21T11:33:27;100083.69;;;15.57;52.82
29215;BME280;16252;49.816;7.964;2023-03-21T11:38:40;100071.50;;;15.53;52.95
29215;BME280;16252;49.816;7.964;2023-03-21T11:41:06;100071.78;;;15.50;52.93
29215;BME280;16252;49.816;7.964;2023-03-21T11:43:36;100080.41;;;15.54;52.96
29215;BME280;16252;49.816;7.964;2023-03-21T11:46:11;100084.44;;;15.50;53.08
29215;BME280;16252;49.816;7.964;2023-03-21T11:48:40;100064.31;;;15.34;52.96
29215;BME280;16252;49.816;7.964;2023-03-21T11:51:23;100053.69;;;15.33;53.72
29215;BME280;16252;49.816;7.964;2023-03-21T11:54:10;100069.72;;;15.34;54.25
29215;BME280;16252;49.816;7.964;2023-03-21T11:56:41;100032.72;;;15.17;53.95
29215;BME280;16252;49.816;7.964;2023-03-21T11:59:19;100064.16;;;15.36;54.06
29215;BME280;16252;49.816;7.964;2023-03-21T12:04:46;100051.91;;;15.51;53.45
29215;BME280;16252;49.816;7.964;2023-03-21T12:10:26;100053.03;;;15.49;54.33
29215;BME280;16252;49.816;7.964;2023-03-21T12:13:00;100046.41;;;15.43;54.04
29215;BME280;16252;49.816;7.964;2023-03-21T12:15:36;100020.47;;;15.32;54.22
29215;BME280;16252;49.816;7.964;2023-03-21T12:20:53;100027.13;;;15.38;54.64
29215;BME280;16252;49.816;7.964;2023-03-21T12:26:21;100030.09;;;15.45;54.77
29215;BME280;16252;49.816;7.964;2023-03-21T12:34:50;100027.84;;;15.40;55.05
29215;BME280;16252;49.816;7.964;2023-03-21T12:37:37;100023.59;;;15.37;54.94
29215;BME280;16252;49.816;7.964;2023-03-21T12:43:25;100006.69;;;15.35;55.17
29215;BME280;16252;49.816;7.964;2023-03-21T12:45:57;100007.41;;;15.37;55.87
29215;BME280;16252;49.816;7.964;2023-03-21T12:48:43;99997.47;;;15.38;56.10
29215;BME280;16252;49.816;7.964;2023-03-21T12:51:13;100008.66;;;15.43;56.49
29215;BME280;16252;49.816;7.964;2023-03-21T12:56:15;100005.22;;;15.51;56.03
29215;BME280;16252;49.816;7.964;2023-03-21T12:58:47;99981.69;;;15.43;56.15
29215;BME280;16252;49.816;7.964;2023-03-21T13:01:15;99972.75;;;15.43;55.96
29215;BME280;16252;49.816;7.964;2023-03-21T13:03:47;99993.53;;;15.60;55.99
29215;BME280;16252;49.816;7.964;2023-03-21T13:06:16;99973.16;;;15.48;56.60
29215;BME280;16252;49.816;7.964;2023-03-21T13:08:50;99987.00;;;15.63;56.27
29215;BME280;16252;49.816;7.964;2023-03-21T13:11:20;99971.72;;;15.53;56.22
29215;BME280;16252;49.816;7.964;2023-03-21T13:14:12;99982.00;;;15.68;56.11
29215;BME280;16252;49.816;7.964;2023-03-21T13:17:01;99956.53;;;15.52;56.02
29215;BME280;16252;49.816;7.964;2023-03-21T13:19:37;99957.56;;;15.42;56.11
29215;BME280;16252;49.816;7.964;2023-03-21T13:24:56;99939.63;;;15.32;56.41
29215;BME280;16252;49.816;7.964;2023-03-21T13:27:30;99943.84;;;15.35;56.37
29215;BME280;16252;49.816;7.964;2023-03-21T13:30:00;99956.19;;;15.37;56.18
29215;BME280;16252;49.816;7.964;2023-03-21T13:32:30;99958.22;;;15.53;55.52
29215;BME280;16252;49.816;7.964;2023-03-21T13:34:57;99957.22;;;15.54;55.16
29215;BME280;16252;49.816;7.964;2023-03-21T13:37:28;99958.88;;;15.37;56.71
29215;BME280;16252;49.816;7.964;2023-03-21T13:39:59;99948.59;;;15.23;57.36
29215;BME280;16252;49.816;7.964;2023-03-21T13:42:31;99947.75;;;15.23;57.19
29215;BME280;16252;49.816;7.964;2023-03-21T13:44:59;99948.47;;;15.15;57.64
29215;BME280;16252;49.816;7.964;2023-03-21T13:47:34;99943.66;;;15.09;57.50
29215;BME280;16252;49.816;7.964;2023-03-21T13:50:25;99946.34;;;15.09;57.63
29215;BME280;16252;49.816;7.964;2023-03-21T13:53:08;99951.16;;;15.15;55.99
29215;BME280;16252;49.816;7.964;2023-03-21T13:55:40;99939.31;;;14.98;57.83
29215;BME280;16252;49.816;7.964;2023-03-21T14:01:20;99928.56;;;14.88;58.00
29215;BME280;16252;49.816;7.964;2023-03-21T14:03:47;99920.66;;;14.87;58.92
29215;BME280;16252;49.816;7.964;2023-03-21T14:06:14;99882.97;;;14.77;59.24
29215;BME280;16252;49.816;7.964;2023-03-21T14:08:43;99877.28;;;14.80;59.17
29215;BME280;16252;49.816;7.964;2023-03-21T14:11:14;99875.44;;;14.81;59.81
29215;BME280;16252;49.816;7.964;2023-03-21T14:13:42;99886.47;;;14.87;59.67